Create Tblcommutelog Verified Points Advance Search
| # | Trip ID | Id Commuter | Trip Date | Trip Num | Current Lat | Current Lng | Delta Distance | Current Time | Activity | Activity Confidence | Current Speed | |
|---|---|---|---|---|---|---|---|---|---|---|---|---|
| 68861 | 250505_783548_6438355_0826 | 783548 | (not set) | (not set) | 38.90132246772 | -77.043408077897 | 5.5342 | 2025-05-05 12:52:22.303 | in_vehicle | 100 | 2.1144956950119 | |
| 68862 | 250505_770910_16453504_0808 | 770910 | (not set) | (not set) | 38.808380523237 | -77.041733459687 | 8.9947 | 2025-05-05 12:52:22.365 | in_vehicle | 100 | 3.241034627661 | |
| 68863 | 250505_783145_6419315_0835 | 783145 | (not set) | (not set) | 39.120853416667 | -76.987091066667 | 11.0823 | 2025-05-05 12:52:22.442 | in_vehicle | 100 | 3.5405509311828 | |
| 68864 | 250505_761648_16500693_0839 | 761648 | (not set) | (not set) | 38.93489361989 | -76.984150543619 | 1.866 | 2025-05-05 12:52:23.247 | on_bicycle | 100 | 1.309825028834 | |
| 68865 | 250505_700992_16414139_0831 | 700992 | (not set) | (not set) | 39.107288188724 | -77.184083508213 | 7.8298 | 2025-05-05 12:52:25.114 | in_vehicle | 100 | 13.245773243806 | |
| 68866 | 250505_780652_6461772_0837 | 780652 | (not set) | (not set) | 38.895569485058 | -77.031053591626 | 2.0653 | 2025-05-05 12:52:26.319 | on_bicycle | 100 | 1.4260552361708 | |
| 68867 | 250505_780724_16421763_0844 | 780724 | (not set) | (not set) | 38.971441747209 | -77.10184329569 | 1.0566 | 2025-05-05 12:52:27.24 | on_bicycle | 100 | 2.986222250038 | |
| 68868 | 250505_781000_16415274_0839 | 781000 | (not set) | (not set) | 38.917241933608 | -77.031929418875 | 0.4836 | 2025-05-05 12:52:27.478 | in_vehicle | 100 | -0.44703925898772 | |
| 68869 | 250505_780856_6461772_0832 | 780856 | (not set) | (not set) | 38.898146544226 | -77.045598718787 | 4.654 | 2025-05-05 12:52:34.733 | on_bicycle | 100 | -0.44703925898772 | |
| 68870 | 250505_780809_16496249_0819 | 780809 | (not set) | (not set) | 38.953113379006 | -77.364271045675 | 2.5096 | 2025-05-05 12:52:35.193 | in_vehicle | 100 | 7.6175489731508 | |
| 68871 | 250505_781006_16465159_0851 | 781006 | (not set) | (not set) | 38.8833595 | -76.982222 | 0.0946 | 2025-05-05 12:52:35.481 | on_bicycle | 100 | 1.9535615617764 | |
| 68872 | 250505_780836_6461772_0847 | 780836 | (not set) | (not set) | 38.89910914313 | -77.187767840895 | 1.4889 | 2025-05-05 12:52:36.158 | on_foot | 100 | 0.60797339222331 | |
| 68873 | 250505_780836_6461772_0847 | 780836 | (not set) | (not set) | 38.898366675312 | -77.18841366486 | 1.5508 | 2025-05-05 12:52:37.087 | on_foot | 100 | 0.60797339222331 | |
| 68874 | 250505_700992_16414139_0831 | 700992 | (not set) | (not set) | 39.10468942337 | -77.181695718252 | 8.0503 | 2025-05-05 12:52:37.101 | in_vehicle | 100 | 13.12060225129 | |
| 68875 | 250505_777589_16507005_0829 | 777589 | (not set) | (not set) | 38.825839539095 | -77.046331409437 | 6.9329 | 2025-05-05 12:52:37.363 | in_vehicle | 100 | 11.006106556278 | |
| 68876 | 250505_780836_6461772_0847 | 780836 | (not set) | (not set) | 38.898873420202 | -77.188834614925 | 1.5924 | 2025-05-05 12:52:38.087 | on_foot | 100 | 0.53644711078527 | |
| 68877 | 250505_783548_6438355_0826 | 783548 | (not set) | (not set) | 38.900405917917 | -77.043476947215 | 5.5976 | 2025-05-05 12:52:38.275 | in_vehicle | 100 | 1.4618183768899 | |
| 68878 | 250505_780724_16421763_0844 | 780724 | (not set) | (not set) | 38.970540393826 | -77.102072296809 | 1.12 | 2025-05-05 12:52:40.191 | on_bicycle | 100 | 3.3974983683067 | |
| 68879 | 250505_781000_16415274_0839 | 781000 | (not set) | (not set) | 38.915474106589 | -77.031988870887 | 0.6032 | 2025-05-05 12:53:12.137 | in_vehicle | 100 | -0.44703925898772 | |
| 68880 | 250505_679555_16500693_0726 | 679555 | (not set) | (not set) | 38.805123598743 | -77.120498552312 | 13.5609 | 2025-05-05 12:53:21.278 | in_vehicle | 100 | 9.3386501202536 |